Time;durP1;ratioP1;P1;durP2;ratioP2;P2;SDS_P1;SDS_P2;PMS_P1;PMS_P2;Temp;Humidity;BMP_temperature;BMP_pressure;BME280_temperature;BME280_humidity;BME280_pressure;Samples;Min_cycle;Max_cycle;Signal;HPM_P1;HPM_P2
2022/05/28 00:01:18;;;;;;;11.68;4.40;;;13.30;11.00;;;;;;7364714;19;20446;-60
2022/05/28 00:03:51;;;;;;;6.97;4.22;;;13.30;11.80;;;;;;7361447;19;20006;-60
2022/05/28 00:06:24;;;;;;;9.20;4.10;;;13.30;13.20;;;;;;7361102;19;20465;-60
2022/05/28 00:08:56;;;;;;;7.38;4.53;;;13.20;13.60;;;;;;7384521;19;20349;-60
2022/05/28 00:11:28;;;;;;;11.15;4.60;;;13.20;15.00;;;;;;7366319;19;20067;-60
2022/05/28 00:14:01;;;;;;;7.03;4.15;;;13.10;14.40;;;;;;7360374;19;20007;-60
2022/05/28 00:16:31;;;;;;;8.68;4.47;;;13.20;16.40;;;;;;7361565;19;20018;-59
2022/05/28 00:19:01;;;;;;;8.65;5.18;;;13.20;13.60;;;;;;7364558;19;20740;-59
2022/05/28 00:21:35;;;;;;;6.78;4.07;;;13.10;15.40;;;;;;7365658;19;20516;-60
2022/05/28 00:24:09;;;;;;;12.90;5.55;;;13.20;16.20;;;;;;7382021;19;20030;-60
2022/05/28 00:26:41;;;;;;;9.13;5.43;;;13.20;16.60;;;;;;7360750;19;20086;-59
2022/05/28 00:29:28;;;;;;;5.13;4.10;;;13.20;16.70;;;;;;7362735;19;20022;-59
2022/05/28 00:31:57;;;;;;;9.90;4.75;;;13.20;17.20;;;;;;7360350;19;20007;-60
2022/05/28 00:34:29;;;;;;;8.30;4.82;;;13.20;17.30;;;;;;7360623;19;20089;-60
2022/05/28 00:36:59;;;;;;;12.45;5.13;;;13.10;13.60;;;;;;7359009;19;20090;-60
2022/05/28 00:39:29;;;;;;;6.30;4.68;;;13.20;16.80;;;;;;7363193;19;20023;-61
2022/05/28 00:42:00;;;;;;;8.27;4.65;;;13.20;15.90;;;;;;7382061;19;20014;-58
2022/05/28 00:44:32;;;;;;;6.45;4.40;;;13.10;13.50;;;;;;7360079;19;20013;-61
2022/05/28 00:47:03;;;;;;;5.72;4.53;;;13.10;13.50;;;;;;7359327;19;20074;-59
2022/05/28 00:49:35;;;;;;;6.90;4.35;;;13.20;16.40;;;;;;7362060;19;20010;-59
2022/05/28 00:52:07;;;;;;;9.02;3.97;;;13.10;13.20;;;;;;7364157;19;20448;-59
2022/05/28 00:54:40;;;;;;;9.82;5.25;;;13.00;12.50;;;;;;7362895;19;20181;-59
2022/05/28 00:57:12;;;;;;;9.13;4.50;;;13.00;14.20;;;;;;7368504;19;20014;-59
2022/05/28 00:59:45;;;;;;;9.07;4.80;;;12.90;15.00;;;;;;7393939;19;20027;-59
2022/05/28 01:02:21;;;;;;;8.60;4.25;;;13.00;14.70;;;;;;7369757;19;20064;-59
2022/05/28 01:04:58;;;;;;;11.23;4.68;;;13.00;14.50;;;;;;7365774;19;20482;-59
2022/05/28 01:07:45;;;;;;;7.85;4.43;;;12.80;7.70;;;;;;7370412;19;20401;-61
2022/05/28 01:10:22;;;;;;;8.93;4.53;;;12.90;11.30;;;;;;7372729;19;20014;-61
2022/05/28 01:13:00;;;;;;;9.40;4.25;;;12.80;6.40;;;;;;7369665;19;20018;-60
2022/05/28 01:15:36;;;;;;;9.27;4.95;;;13.00;11.60;;;;;;7363257;19;20014;-60
2022/05/28 01:18:12;;;;;;;8.90;3.97;;;12.80;6.80;;;;;;7393973;19;20398;-60
2022/05/28 01:20:45;;;;;;;7.35;4.13;;;12.70;3.30;;;;;;7372625;19;20086;-60
2022/05/28 01:23:42;;;;;;;9.73;4.10;;;12.60;2.60;;;;;;7366459;19;20007;-60
2022/05/28 01:26:18;;;;;;;7.90;3.83;;;12.70;2.10;;;;;;7366778;19;20009;-60
2022/05/28 01:28:54;;;;;;;9.63;4.85;;;12.70;4.30;;;;;;7371048;19;20006;-60
2022/05/28 01:31:26;;;;;;;8.88;3.72;;;12.60;3.60;;;;;;7370486;19;20370;-60
2022/05/28 01:33:57;;;;;;;9.50;3.83;;;12.50;3.50;;;;;;7366501;19;20014;-60
2022/05/28 01:36:28;;;;;;;10.43;3.88;;;12.50;2.40;;;;;;7367362;19;20026;-60
2022/05/28 01:38:59;;;;;;;10.25;3.90;;;12.40;1.90;;;;;;7393176;19;20014;-60
2022/05/28 01:41:31;;;;;;;9.13;3.92;;;12.40;2.80;;;;;;7371456;19;20017;-60
2022/05/28 01:44:04;;;;;;;8.23;3.70;;;12.30;1.90;;;;;;7365008;19;20022;-60
2022/05/28 01:46:36;;;;;;;7.10;3.90;;;12.40;1.90;;;;;;7366194;19;20093;-60
2022/05/28 01:49:10;;;;;;;9.65;4.10;;;12.30;1.90;;;;;;7369679;19;20417;-60
2022/05/28 01:51:43;;;;;;;10.73;3.70;;;12.20;1.00;;;;;;7371011;19;20349;-60
2022/05/28 01:54:15;;;;;;;10.25;3.33;;;12.10;1.00;;;;;;7365357;19;20022;-60
2022/05/28 01:56:48;;;;;;;11.20;3.42;;;12.00;1.00;;;;;;7387835;19;20529;-60
2022/05/28 01:59:24;;;;;;;11.02;3.40;;;12.00;1.00;;;;;;7370499;19;20018;-60
2022/05/28 02:01:56;;;;;;;10.38;3.15;;;12.00;1.00;;;;;;7368483;19;20468;-59
2022/05/28 02:04:27;;;;;;;7.43;2.80;;;11.90;1.00;;;;;;7365072;19;20027;-58
2022/05/28 02:06:57;;;;;;;14.80;3.58;;;11.80;1.00;;;;;;7365745;19;20015;-59
2022/05/28 02:09:34;;;;;;;9.13;3.03;;;11.70;1.00;;;;;;7369459;19;19996;-59
2022/05/28 02:12:12;;;;;;;12.18;3.35;;;11.70;1.00;;;;;;7390319;19;20019;-59
2022/05/28 02:15:11;;;;;;;10.52;2.92;;;11.60;1.00;;;;;;7363607;19;20772;-60
2022/05/28 02:17:49;;;;;;;9.52;3.20;;;11.60;1.00;;;;;;7369666;19;20020;-59
2022/05/28 02:20:28;;;;;;;8.93;2.92;;;11.50;1.00;;;;;;7369796;19;20020;-59
2022/05/28 02:23:23;;;;;;;9.80;3.67;;;11.40;1.00;;;;;;7364088;19;20011;-59
2022/05/28 02:25:58;;;;;;;8.43;2.80;;;11.40;1.00;;;;;;7365107;19;20011;-60
2022/05/28 02:28:30;;;;;;;12.35;2.80;;;11.40;1.00;;;;;;7370497;19;20018;-60
2022/05/28 02:31:13;;;;;;;12.55;2.90;;;11.40;1.00;;;;;;7369840;19;20031;-59
2022/05/28 02:33:43;;;;;;;7.40;2.50;;;11.30;1.00;;;;;;7364167;19;20010;-59
2022/05/28 02:36:15;;;;;;;9.60;3.72;;;11.20;1.00;;;;;;7365265;19;20549;-59
2022/05/28 02:38:46;;;;;;;9.30;2.92;;;11.20;1.00;;;;;;7391690;19;20010;-59
2022/05/28 02:41:17;;;;;;;6.50;2.60;;;11.30;1.00;;;;;;7369454;19;20451;-59
2022/05/28 02:43:50;;;;;;;10.80;2.95;;;11.20;1.00;;;;;;7362722;19;20006;-59
2022/05/28 02:46:23;;;;;;;9.02;2.67;;;11.10;1.00;;;;;;7363805;19;20027;-60
2022/05/28 02:48:53;;;;;;;7.15;2.67;;;11.20;1.00;;;;;;7368468;19;20450;-59
2022/05/28 02:51:25;;;;;;;12.93;2.85;;;11.10;1.00;;;;;;7369500;19;20959;-60
2022/05/28 02:53:56;;;;;;;9.85;3.00;;;11.10;1.00;;;;;;7385030;19;20021;-59
2022/05/28 02:56:26;;;;;;;6.82;2.40;;;11.00;1.00;;;;;;7363743;19;20014;-59
2022/05/28 02:58:56;;;;;;;12.57;3.10;;;10.90;1.00;;;;;;7368539;19;20018;-59
2022/05/28 03:01:33;;;;;;;10.00;2.95;;;10.90;1.00;;;;;;7369304;19;20090;-59
2022/05/28 03:04:05;;;;;;;11.07;2.70;;;10.80;1.00;;;;;;7364625;19;20099;-59
2022/05/28 03:06:35;;;;;;;11.02;3.80;;;10.70;1.00;;;;;;7363947;19;20003;-60
2022/05/28 03:09:06;;;;;;;8.02;2.65;;;10.60;1.00;;;;;;7390154;19;20006;-60
2022/05/28 03:11:37;;;;;;;10.18;2.63;;;10.60;1.00;;;;;;7368513;19;20023;-60
2022/05/28 03:14:08;;;;;;;8.88;2.78;;;10.60;1.00;;;;;;7362574;19;20350;-59
2022/05/28 03:16:42;;;;;;;10.43;2.55;;;10.50;1.00;;;;;;7364311;19;20086;-61
2022/05/28 03:19:12;;;;;;;12.23;2.85;;;10.50;1.00;;;;;;7369302;19;20018;-59
2022/05/28 03:21:43;;;;;;;7.18;2.53;;;10.40;1.00;;;;;;7367097;19;20015;-60
2022/05/28 03:24:12;;;;;;;10.13;2.40;;;10.40;1.00;;;;;;7363623;19;20087;-60
2022/05/28 03:26:42;;;;;;;7.68;2.42;;;10.40;1.00;;;;;;7385007;19;20018;-60
2022/05/28 03:29:12;;;;;;;6.90;2.28;;;10.40;1.00;;;;;;7368046;19;20007;-59
2022/05/28 03:31:45;;;;;;;6.85;2.42;;;10.40;1.00;;;;;;7367689;19;20010;-59
2022/05/28 03:34:14;;;;;;;9.60;2.67;;;10.20;1.00;;;;;;7364385;19;20027;-59
2022/05/28 03:36:44;;;;;;;7.25;2.47;;;10.10;1.00;;;;;;7362886;19;20078;-59
2022/05/28 03:39:14;;;;;;;8.15;2.70;;;10.10;1.00;;;;;;7367557;19;20386;-59
2022/05/28 03:41:46;;;;;;;7.75;2.53;;;10.00;1.00;;;;;;7387901;19;20018;-60
2022/05/28 03:44:16;;;;;;;8.68;2.53;;;10.00;1.00;;;;;;7362785;19;20006;-60
2022/05/28 03:46:48;;;;;;;9.55;2.35;;;10.10;1.00;;;;;;7361791;19;20018;-60
2022/05/28 03:49:23;;;;;;;9.15;2.80;;;10.30;1.00;;;;;;7366981;19;20676;-59
2022/05/28 03:51:54;;;;;;;6.93;2.47;;;10.70;1.00;;;;;;7364940;19;20022;-60
2022/05/28 03:54:24;;;;;;;6.68;2.38;;;11.40;1.00;;;;;;7363677;19;20445;-60
2022/05/28 03:56:58;;;;;;;8.15;2.40;;;11.60;1.00;;;;;;7384159;19;20347;-59
2022/05/28 03:59:29;;;;;;;8.75;2.25;;;11.10;1.00;;;;;;7366897;19;20357;-59
2022/05/28 04:02:02;;;;;;;5.20;2.20;;;11.20;1.00;;;;;;7364544;19;20141;-59
2022/05/28 04:04:32;;;;;;;8.70;2.47;;;11.30;1.00;;;;;;7364279;19;20034;-59
2022/05/28 04:07:02;;;;;;;7.05;2.50;;;11.60;1.00;;;;;;7362927;19;20015;-59
2022/05/28 04:09:32;;;;;;;10.05;2.17;;;12.20;1.00;;;;;;7367310;19;20416;-59
2022/05/28 04:12:02;;;;;;;9.63;2.30;;;12.10;1.00;;;;;;7386241;19;20082;-59
2022/05/28 04:14:32;;;;;;;9.45;2.60;;;12.00;1.00;;;;;;7363601;19;20027;-59
2022/05/28 04:17:04;;;;;;;12.60;2.28;;;12.40;1.00;;;;;;7362570;19;20089;-62
2022/05/28 04:19:41;;;;;;;10.82;2.60;;;13.40;1.00;;;;;;7367126;19;20007;-60
2022/05/28 04:22:10;;;;;;;9.25;2.20;;;12.70;1.00;;;;;;7363976;19;20024;-59
2022/05/28 04:24:40;;;;;;;8.10;2.00;;;11.80;1.00;;;;;;7362421;19;20078;-61
2022/05/28 04:27:11;;;;;;;8.27;1.98;;;12.10;1.00;;;;;;7368528;19;20052;-61
2022/05/28 04:29:40;;;;;;;9.35;2.40;;;12.90;1.00;;;;;;7395635;19;20014;-61
2022/05/28 04:32:13;;;;;;;5.65;2.28;;;13.30;1.00;;;;;;7371565;19;20071;-60
2022/05/28 04:34:43;;;;;;;8.88;2.28;;;13.40;1.00;;;;;;7366512;19;20078;-61
2022/05/28 04:37:13;;;;;;;7.95;2.13;;;13.40;1.00;;;;;;7371716;19;20011;-60
2022/05/28 04:39:44;;;;;;;10.48;2.33;;;13.50;1.00;;;;;;7371261;19;20077;-61
2022/05/28 04:42:14;;;;;;;9.20;2.47;;;14.90;1.00;;;;;;7364531;19;20367;-60
2022/05/28 04:44:44;;;;;;;9.05;2.22;;;16.10;1.00;;;;;;7388530;19;20352;-61
2022/05/28 04:47:17;;;;;;;7.75;2.20;;;15.50;1.00;;;;;;7371054;19;20011;-61
2022/05/28 04:49:47;;;;;;;4.57;2.05;;;14.80;1.00;;;;;;7372144;19;20102;-60
2022/05/28 04:52:17;;;;;;;5.13;1.73;;;13.80;1.00;;;;;;7371075;19;20014;-61
2022/05/28 04:54:46;;;;;;;5.15;2.15;;;15.30;1.00;;;;;;7366926;19;20093;-61
2022/05/28 04:57:16;;;;;;;10.90;2.40;;;15.00;1.00;;;;;;7369774;19;20029;-62
2022/05/28 04:59:46;;;;;;;5.15;2.25;;;14.20;1.00;;;;;;7394205;19;20019;-59
2022/05/28 05:02:19;;;;;;;6.85;1.83;;;14.10;1.00;;;;;;7369993;19;20028;-61
2022/05/28 05:04:49;;;;;;;7.85;2.05;;;15.60;1.00;;;;;;7365048;19;20101;-61
2022/05/28 05:07:19;;;;;;;6.93;2.20;;;16.80;1.00;;;;;;7371125;19;20077;-61
2022/05/28 05:09:48;;;;;;;8.68;2.20;;;16.50;1.00;;;;;;7372165;19;20006;-61
2022/05/28 05:12:18;;;;;;;9.75;2.70;;;15.50;1.00;;;;;;7368676;19;20086;-61
2022/05/28 05:14:48;;;;;;;7.93;2.53;;;14.50;1.00;;;;;;7388197;19;20092;-61
2022/05/28 05:17:21;;;;;;;8.80;2.42;;;15.10;1.00;;;;;;7370102;19;20017;-62
2022/05/28 05:19:51;;;;;;;9.02;2.30;;;15.80;1.00;;;;;;7371558;19;20011;-60
2022/05/28 05:22:21;;;;;;;8.90;2.10;;;15.10;1.00;;;;;;7370062;19;20002;-61
2022/05/28 05:24:51;;;;;;;6.05;1.75;;;15.60;1.00;;;;;;7366093;19;20011;-61
2022/05/28 05:27:20;;;;;;;7.68;2.53;;;15.20;1.00;;;;;;7369060;19;20078;-60
2022/05/28 05:29:50;;;;;;;8.30;2.50;;;15.50;1.00;;;;;;7393844;19;20014;-60
2022/05/28 05:32:23;;;;;;;8.90;2.47;;;15.50;1.00;;;;;;7368912;19;20026;-59
2022/05/28 05:34:53;;;;;;;11.20;2.63;;;15.30;1.00;;;;;;7363506;19;20018;-60
2022/05/28 05:37:23;;;;;;;5.55;2.20;;;14.10;1.00;;;;;;7367905;19;20363;-61
2022/05/28 05:39:53;;;;;;;9.00;2.70;;;14.40;1.00;;;;;;7370749;19;20095;-61
2022/05/28 05:42:23;;;;;;;10.52;2.55;;;15.70;1.00;;;;;;7369020;19;20024;-60
2022/05/28 05:44:53;;;;;;;10.65;2.38;;;14.60;1.00;;;;;;7388636;19;20018;-59
2022/05/28 05:47:26;;;;;;;9.68;2.50;;;13.60;1.00;;;;;;7365902;19;20031;-59
2022/05/28 05:49:56;;;;;;;11.32;2.60;;;13.90;1.00;;;;;;7369118;19;20016;-61
2022/05/28 05:52:25;;;;;;;7.60;2.45;;;13.60;1.00;;;;;;7368474;19;20085;-59
2022/05/28 05:54:55;;;;;;;11.15;2.20;;;13.40;1.00;;;;;;7367816;19;20030;-59
2022/05/28 05:57:25;;;;;;;8.20;2.47;;;14.60;1.00;;;;;;7366337;19;20085;-58
2022/05/28 05:59:55;;;;;;;10.20;2.50;;;14.10;1.00;;;;;;7391807;19;20077;-59
2022/05/28 06:02:27;;;;;;;6.75;2.50;;;13.30;1.00;;;;;;7368126;19;20086;-59
2022/05/28 06:04:58;;;;;;;8.23;2.42;;;15.80;1.00;;;;;;7365321;19;20478;-59
2022/05/28 06:07:28;;;;;;;11.77;2.67;;;15.60;1.00;;;;;;7365917;19;20040;-59
2022/05/28 06:09:58;;;;;;;8.95;2.20;;;14.60;1.00;;;;;;7370610;19;20021;-60
2022/05/28 06:12:28;;;;;;;6.28;2.00;;;13.20;1.00;;;;;;7366144;19;20020;-60
2022/05/28 06:14:58;;;;;;;7.10;2.05;;;13.30;1.00;;;;;;7388966;19;20094;-61
2022/05/28 06:17:33;;;;;;;4.68;1.67;;;13.30;1.00;;;;;;7365347;19;20015;-61
2022/05/28 06:20:04;;;;;;;6.50;1.50;;;13.20;1.00;;;;;;7369517;19;20474;-59
2022/05/28 06:22:34;;;;;;;6.57;1.80;;;13.00;1.00;;;;;;7367810;19;20031;-59
2022/05/28 06:25:04;;;;;;;7.07;2.10;;;13.80;1.00;;;;;;7366910;19;20014;-60
2022/05/28 06:27:35;;;;;;;15.75;2.13;;;14.20;1.00;;;;;;7365137;19;20514;-60
2022/05/28 06:30:06;;;;;;;7.18;2.00;;;14.30;1.00;;;;;;7392250;19;20085;-60
2022/05/28 06:32:39;;;;;;;7.40;2.20;;;14.30;1.00;;;;;;7364513;19;20006;-60
2022/05/28 06:35:11;;;;;;;5.93;2.05;;;15.00;1.00;;;;;;7365511;19;20007;-60
2022/05/28 06:37:41;;;;;;;6.45;1.90;;;14.20;1.00;;;;;;7365189;19;20006;-60
2022/05/28 06:40:12;;;;;;;8.45;2.25;;;14.50;1.00;;;;;;7369936;19;20014;-60
2022/05/28 06:42:44;;;;;;;5.88;1.90;;;14.50;1.00;;;;;;7367574;19;20016;-59
2022/05/28 06:45:16;;;;;;;7.53;2.10;;;13.90;1.00;;;;;;7363720;19;20048;-60
2022/05/28 06:47:49;;;;;;;8.10;2.17;;;13.50;1.00;;;;;;7384538;19;20031;-59
2022/05/28 06:53:07;;;;;;;13.20;2.07;;;13.30;1.00;;;;;;7364260;19;20021;-59
2022/05/28 06:55:38;;;;;;;5.50;1.77;;;13.50;1.00;;;;;;7363899;19;20082;-59
2022/05/28 06:58:09;;;;;;;7.20;1.83;;;13.30;1.00;;;;;;7365793;19;20029;-60
2022/05/28 07:00:40;;;;;;;4.93;1.48;;;13.60;1.00;;;;;;7367967;19;20437;-60
2022/05/28 07:03:19;;;;;;;6.70;1.58;;;13.40;1.00;;;;;;7362197;19;20043;-61
2022/05/28 07:05:55;;;;;;;6.07;1.95;;;13.30;1.00;;;;;;7385118;19;20021;-61
2022/05/28 07:08:26;;;;;;;10.68;1.67;;;13.40;1.00;;;;;;7365619;19;20019;-60
2022/05/28 07:10:58;;;;;;;7.57;1.70;;;13.20;1.00;;;;;;7365988;19;20372;-60
2022/05/28 07:13:30;;;;;;;8.35;1.95;;;13.60;1.00;;;;;;7363241;19;20006;-60
2022/05/28 07:16:00;;;;;;;7.65;1.80;;;14.20;1.00;;;;;;7362630;19;20093;-60
2022/05/28 07:18:33;;;;;;;6.47;1.50;;;14.40;1.00;;;;;;7365077;19;20018;-60
2022/05/28 07:21:03;;;;;;;8.68;1.75;;;13.70;1.00;;;;;;7387470;19;20025;-60
2022/05/28 07:23:34;;;;;;;7.00;1.70;;;14.10;1.00;;;;;;7359619;19;20014;-60
2022/05/28 07:26:06;;;;;;;5.70;1.65;;;13.70;1.00;;;;;;7362894;19;20010;-59
2022/05/28 07:28:41;;;;;;;4.35;1.40;;;14.10;1.00;;;;;;7364236;19;20084;-60
2022/05/28 07:31:11;;;;;;;;;;;13.70;1.00;;;;;;7367138;19;20505;-61
2022/05/28 07:33:46;;;;;;;8.40;1.60;;;14.00;1.00;;;;;;7360688;19;19967;-61
2022/05/28 07:36:19;;;;;;;4.13;1.30;;;14.80;1.00;;;;;;7365021;19;20031;-60
2022/05/28 07:38:50;;;;;;;4.15;1.40;;;13.90;1.00;;;;;;7388032;19;20018;-60
2022/05/28 07:41:24;;;;;;;8.23;1.70;;;14.70;1.00;;;;;;7364907;19;20017;-60
2022/05/28 07:43:55;;;;;;;6.05;1.67;;;14.60;1.00;;;;;;7361740;19;20010;-60
2022/05/28 07:46:27;;;;;;;5.60;1.10;;;14.70;1.00;;;;;;7364225;19;20074;-60
2022/05/28 07:49:02;;;;;;;6.38;1.90;;;14.50;1.00;;;;;;7367034;19;20023;-60
2022/05/28 07:51:35;;;;;;;6.32;1.50;;;14.20;1.00;;;;;;7366117;19;20006;-60
2022/05/28 07:54:06;;;;;;;6.47;1.60;;;14.00;1.00;;;;;;7382340;19;20023;-60
2022/05/28 07:56:36;;;;;;;4.82;1.77;;;14.30;1.00;;;;;;7362047;19;20014;-60
2022/05/28 07:59:06;;;;;;;6.07;1.13;;;14.50;1.00;;;;;;7366268;19;20018;-59
2022/05/28 08:01:39;;;;;;;5.22;1.33;;;14.80;1.00;;;;;;7363607;19;20074;-60
2022/05/28 08:04:13;;;;;;;6.05;2.03;;;15.20;1.00;;;;;;7361921;19;20082;-60
2022/05/28 08:06:43;;;;;;;5.32;1.58;;;15.00;1.00;;;;;;7361671;19;20078;-60
2022/05/28 08:09:14;;;;;;;5.57;1.65;;;15.30;1.00;;;;;;7366432;19;20006;-60
2022/05/28 08:11:44;;;;;;;11.77;1.75;;;15.30;1.00;;;;;;7386928;19;20022;-59
2022/05/28 08:14:14;;;;;;;11.15;1.52;;;15.10;1.00;;;;;;7362204;19;20017;-59
2022/05/28 08:16:44;;;;;;;5.60;1.58;;;14.60;1.00;;;;;;7361423;19;20085;-59
2022/05/28 08:19:16;;;;;;;4.10;1.40;;;14.80;1.00;;;;;;7366963;19;20078;-60
2022/05/28 08:24:29;;;;;;;5.30;1.35;;;14.80;1.00;;;;;;7362210;19;20015;-60
2022/05/28 08:27:00;;;;;;;7.78;1.77;;;14.70;1.00;;;;;;7382548;19;20009;-60
2022/05/28 08:29:30;;;;;;;6.00;1.23;;;15.50;1.00;;;;;;7366053;19;20393;-60
2022/05/28 08:32:00;;;;;;;3.50;1.33;;;15.20;1.00;;;;;;7362708;19;20018;-59
2022/05/28 08:34:32;;;;;;;5.15;1.30;;;15.90;1.00;;;;;;7365135;19;20015;-60
2022/05/28 08:37:02;;;;;;;5.45;1.27;;;15.60;1.00;;;;;;7360074;19;20006;-58
2022/05/28 08:39:32;;;;;;;3.65;1.08;;;15.90;1.00;;;;;;7366233;19;20014;-59
2022/05/28 08:42:02;;;;;;;4.30;1.40;;;15.10;1.00;;;;;;7385480;19;20086;-59
2022/05/28 08:44:35;;;;;;;4.95;1.10;;;14.60;1.00;;;;;;7364560;19;20470;-59
2022/05/28 08:47:17;;;;;;;4.63;1.25;;;14.70;1.00;;;;;;7358503;19;20003;-59
2022/05/28 08:49:50;;;;;;;6.00;1.30;;;15.40;1.00;;;;;;7364614;19;20018;-59
2022/05/28 08:52:25;;;;;;;5.80;1.90;;;15.80;1.00;;;;;;7362900;19;20014;-59
2022/05/28 08:55:02;;;;;;;4.05;1.25;;;15.40;1.00;;;;;;7364348;19;20686;-59
2022/05/28 08:57:47;;;;;;;5.03;1.23;;;16.20;1.00;;;;;;7359929;19;20035;-59
2022/05/28 09:00:21;;;;;;;6.55;1.52;;;16.10;1.00;;;;;;7364831;19;20094;-59
2022/05/28 09:02:54;;;;;;;5.68;1.38;;;16.30;1.00;;;;;;7384863;19;20427;-60
2022/05/28 09:05:31;;;;;;;6.53;1.40;;;16.30;1.00;;;;;;7361729;19;20450;-59
2022/05/28 09:08:03;;;;;;;4.85;1.65;;;15.90;1.00;;;;;;7361625;19;20018;-59
2022/05/28 09:10:38;;;;;;;5.18;1.50;;;15.70;1.00;;;;;;7363860;19;20022;-59
2022/05/28 09:13:23;;;;;;;7.00;1.52;;;15.90;1.00;;;;;;7366554;19;20014;-59
2022/05/28 09:15:54;;;;;;;4.70;1.30;;;15.70;1.00;;;;;;7367153;19;20446;-59
2022/05/28 09:18:25;;;;;;;4.85;1.20;;;15.40;1.00;;;;;;7368426;19;20014;-60
2022/05/28 09:20:57;;;;;;;3.85;1.50;;;15.40;1.00;;;;;;7390312;19;20010;-60
2022/05/28 09:23:28;;;;;;;3.17;1.17;;;15.70;1.00;;;;;;7369456;19;20003;-60
2022/05/28 09:26:00;;;;;;;5.20;1.40;;;15.80;1.00;;;;;;7367528;19;20169;-59
2022/05/28 09:28:41;;;;;;;6.25;1.48;;;15.00;1.00;;;;;;7368449;19;20031;-59
2022/05/28 09:31:23;;;;;;;6.88;1.17;;;15.50;1.00;;;;;;7371650;19;20006;-60
2022/05/28 09:34:18;;;;;;;7.43;1.20;;;15.30;1.00;;;;;;7367880;19;20017;-60
2022/05/28 09:36:58;;;;;;;7.50;1.23;;;16.20;1.00;;;;;;7365328;19;20018;-60
2022/05/28 09:39:48;;;;;;;4.53;1.58;;;16.50;1.00;;;;;;7369401;19;20003;-60
2022/05/28 09:42:29;;;;;;;7.95;1.25;;;15.70;1.00;;;;;;7367520;19;20038;-60
2022/05/28 09:45:13;;;;;;;3.55;1.20;;;16.00;1.00;;;;;;7391397;19;20459;-61
2022/05/28 09:47:47;;;;;;;5.68;1.40;;;16.20;1.00;;;;;;7364240;19;20007;-59
2022/05/28 09:50:24;;;;;;;3.50;1.13;;;15.80;1.00;;;;;;7369816;19;20074;-59
2022/05/28 09:55:56;;;;;;;5.47;1.10;;;15.90;1.00;;;;;;7367225;19;20014;-60
2022/05/28 09:58:30;;;;;;;5.88;1.70;;;15.30;1.00;;;;;;7367680;19;20002;-60
2022/05/28 10:01:10;;;;;;;;;;;16.00;1.00;;;;;;7370934;19;20020;-60
2022/05/28 10:06:28;;;;;;;4.90;1.58;;;15.60;1.00;;;;;;7366847;19;20581;-60
2022/05/28 10:09:13;;;;;;;5.25;1.75;;;15.50;1.00;;;;;;7387526;19;20003;-60
2022/05/28 10:11:52;;;;;;;3.72;1.20;;;15.10;1.00;;;;;;7369548;19;20537;-60
2022/05/28 10:14:23;;;;;;;3.47;1.23;;;15.10;1.00;;;;;;7366840;19;20024;-59
2022/05/28 10:16:58;;;;;;;6.28;1.40;;;15.60;1.00;;;;;;7363006;19;20011;-59
2022/05/28 10:19:34;;;;;;;6.05;1.48;;;15.70;1.00;;;;;;7368451;19;20478;-59
2022/05/28 10:22:08;;;;;;;5.40;1.60;;;16.00;1.00;;;;;;7367398;19;20006;-59
2022/05/28 10:24:47;;;;;;;5.85;1.20;;;15.50;1.00;;;;;;7366627;19;20474;-60
2022/05/28 10:27:37;;;;;;;7.47;1.63;;;16.00;1.00;;;;;;7362683;19;20028;-60
2022/05/28 10:30:11;;;;;;;7.05;1.48;;;16.20;1.00;;;;;;7391135;19;20006;-60
2022/05/28 10:32:49;;;;;;;6.20;1.30;;;16.50;1.00;;;;;;7365847;19;20010;-60
2022/05/28 10:35:25;;;;;;;4.40;1.15;;;16.70;1.00;;;;;;7367089;19;20015;-61
2022/05/28 10:37:55;;;;;;;5.22;1.38;;;17.10;1.00;;;;;;7364192;19;20031;-60
2022/05/28 10:40:29;;;;;;;5.22;1.50;;;16.30;1.00;;;;;;7368549;19;20361;-60
2022/05/28 10:43:06;;;;;;;6.43;1.42;;;15.90;1.00;;;;;;7366390;19;20540;-60
2022/05/28 10:45:43;;;;;;;5.18;1.27;;;16.40;1.00;;;;;;7364047;19;20031;-60
2022/05/28 10:48:32;;;;;;;4.55;1.10;;;16.50;1.00;;;;;;7366321;19;20017;-60
2022/05/28 10:51:11;;;;;;;4.97;1.58;;;16.50;1.00;;;;;;7390218;19;20663;-60
2022/05/28 10:54:13;;;;;;;4.40;1.15;;;16.60;1.00;;;;;;7364044;19;20342;-60
2022/05/28 10:56:55;;;;;;;6.85;1.65;;;16.20;1.00;;;;;;7365728;19;20006;-60
2022/05/28 10:59:47;;;;;;;4.65;1.30;;;16.90;1.00;;;;;;7366305;19;20506;-60
2022/05/28 11:02:54;;;;;;;3.08;1.30;;;16.30;1.00;;;;;;7364941;19;20070;-59
2022/05/28 11:05:43;;;;;;;2.65;1.20;;;16.60;1.00;;;;;;7364666;19;20014;-59
2022/05/28 11:08:19;;;;;;;7.05;1.23;;;16.50;1.00;;;;;;7364312;19;20012;-60
2022/05/28 11:11:04;;;;;;;4.78;1.20;;;16.70;1.00;;;;;;7367890;19;20024;-59
2022/05/28 11:13:53;;;;;;;3.58;1.17;;;16.10;1.00;;;;;;7365186;19;20007;-60
2022/05/28 11:16:52;;;;;;;3.85;1.35;;;16.80;1.00;;;;;;7365301;19;20126;-59
2022/05/28 11:19:42;;;;;;;4.88;1.33;;;16.60;1.00;;;;;;7367351;19;20019;-59
2022/05/28 11:22:41;;;;;;;6.78;1.10;;;17.80;1.00;;;;;;7365722;19;20847;-60
2022/05/28 11:25:18;;;;;;;5.63;1.60;;;18.90;1.00;;;;;;7367073;19;20518;-59
2022/05/28 11:28:02;;;;;;;5.80;1.33;;;16.90;1.00;;;;;;7361532;19;20010;-59
2022/05/28 11:30:40;;;;;;;3.58;1.20;;;17.60;1.00;;;;;;7366785;19;20035;-60
2022/05/28 11:33:16;;;;;;;3.35;1.23;;;18.60;1.00;;;;;;7365721;19;20010;-60
2022/05/28 11:35:50;;;;;;;4.10;1.00;;;17.50;1.00;;;;;;7383922;19;20021;-60
2022/05/28 11:38:28;;;;;;;5.00;1.35;;;18.00;1.00;;;;;;7362107;19;20014;-60
2022/05/28 11:41:23;;;;;;;2.92;1.17;;;18.40;1.00;;;;;;7367551;19;20014;-59
2022/05/28 11:43:55;;;;;;;;;;;17.20;1.00;;;;;;7363933;19;20017;-59
2022/05/28 11:46:32;;;;;;;3.83;1.17;;;16.80;1.00;;;;;;7363528;19;20345;-60
2022/05/28 11:51:57;;;;;;;5.78;2.00;;;16.80;1.00;;;;;;7362303;19;20161;-61
2022/05/28 11:54:33;;;;;;;3.92;1.20;;;17.10;1.00;;;;;;7365363;19;20015;-60
2022/05/28 11:57:11;;;;;;;5.25;1.13;;;17.20;1.00;;;;;;7382531;19;20007;-59
2022/05/28 11:59:42;;;;;;;5.38;1.35;;;16.50;1.00;;;;;;7365421;19;20082;-59
2022/05/28 12:02:25;;;;;;;5.45;1.42;;;17.40;1.00;;;;;;7363564;19;20006;-60
2022/05/28 12:04:56;;;;;;;6.47;1.47;;;17.80;1.00;;;;;;7364421;19;20421;-59
2022/05/28 12:07:36;;;;;;;2.78;1.10;;;17.40;1.00;;;;;;7359969;19;20062;-59
2022/05/28 12:10:09;;;;;;;5.22;1.20;;;17.30;1.00;;;;;;7365811;19;20006;-60
2022/05/28 12:13:01;;;;;;;5.05;1.30;;;17.60;1.00;;;;;;7363932;19;20481;-60
2022/05/28 12:15:33;;;;;;;1.92;1.05;;;17.90;1.00;;;;;;7362117;19;20086;-60
2022/05/28 12:18:14;;;;;;;5.57;1.30;;;18.30;1.00;;;;;;7384383;19;20014;-59
2022/05/28 12:23:36;;;;;;;4.45;1.48;;;17.30;1.00;;;;;;7362405;19;20044;-59
2022/05/28 12:28:53;;;;;;;5.63;1.20;;;17.60;1.00;;;;;;7360715;19;20395;-59
2022/05/28 12:31:28;;;;;;;4.07;1.25;;;18.10;1.00;;;;;;7365346;19;20010;-60
2022/05/28 12:34:03;;;;;;;3.92;1.15;;;17.80;1.00;;;;;;7361900;19;20018;-60
2022/05/28 12:36:43;;;;;;;3.72;1.30;;;17.60;1.00;;;;;;7363403;19;20118;-60
2022/05/28 12:39:36;;;;;;;4.00;1.13;;;18.10;1.00;;;;;;7360699;19;20007;-60
2022/05/28 12:42:19;;;;;;;2.75;0.95;;;18.60;1.00;;;;;;7384848;19;20094;-59
2022/05/28 12:44:52;;;;;;;4.85;1.20;;;18.40;1.00;;;;;;7363462;19;20003;-59
2022/05/28 12:47:34;;;;;;;2.50;1.13;;;17.70;1.00;;;;;;7359677;19;20017;-59
2022/05/28 12:50:12;;;;;;;8.05;2.10;;;18.00;1.00;;;;;;7371291;19;20110;-59
2022/05/28 12:52:47;;;;;;;3.40;1.20;;;17.20;1.00;;;;;;7368660;19;20052;-60
2022/05/28 12:55:23;;;;;;;3.58;1.00;;;17.30;1.00;;;;;;7369382;19;20011;-60
2022/05/28 12:58:03;;;;;;;2.60;0.82;;;17.70;1.00;;;;;;7366474;19;20003;-59
2022/05/28 13:00:38;;;;;;;3.60;1.08;;;18.40;1.00;;;;;;7372942;19;20022;-59
2022/05/28 13:03:12;;;;;;;5.63;1.17;;;17.60;1.00;;;;;;7374919;19;20018;-59
2022/05/28 13:05:55;;;;;;;3.58;0.90;;;18.20;1.00;;;;;;7386282;19;20030;-59
2022/05/28 13:08:35;;;;;;;7.38;1.55;;;17.40;1.00;;;;;;7366956;19;20078;-59
2022/05/28 13:11:20;;;;;;;7.43;1.02;;;18.40;1.00;;;;;;7370990;19;20010;-60
2022/05/28 13:14:07;;;;;;;3.13;1.20;;;18.30;1.00;;;;;;7367464;19;20020;-61
2022/05/28 13:16:59;;;;;;;2.45;1.45;;;17.60;1.00;;;;;;7368637;19;20362;-60
2022/05/28 13:20:00;;;;;;;3.33;1.42;;;17.80;1.00;;;;;;7370102;19;20068;-59
2022/05/28 13:26:11;;;;;;;3.00;1.00;;;17.30;1.00;;;;;;7368110;19;20038;-59
2022/05/28 13:29:15;;;;;;;5.68;1.20;;;17.50;1.00;;;;;;7366318;19;20014;-60
2022/05/28 13:31:53;;;;;;;4.35;1.30;;;17.30;1.00;;;;;;7370634;19;20110;-59
2022/05/28 13:34:43;;;;;;;2.83;1.00;;;17.10;1.00;;;;;;7369144;19;20017;-60
2022/05/28 13:37:20;;;;;;;3.90;1.10;;;16.90;1.00;;;;;;7365119;19;20002;-59
2022/05/28 13:39:55;;;;;;;3.35;1.17;;;17.20;1.00;;;;;;7369518;19;20015;-59
2022/05/28 13:42:26;;;;;;;4.85;1.13;;;17.10;1.00;;;;;;7368148;19;20010;-59
2022/05/28 13:45:00;;;;;;;2.53;1.10;;;17.30;1.00;;;;;;7390201;19;20014;-59
2022/05/28 13:47:35;;;;;;;3.13;1.00;;;17.20;1.00;;;;;;7364650;19;20440;-60
2022/05/28 13:50:09;;;;;;;3.85;0.90;;;17.50;1.00;;;;;;7367993;19;20557;-60
2022/05/28 13:52:44;;;;;;;5.57;1.50;;;17.00;1.00;;;;;;7367735;19;20014;-59
2022/05/28 13:55:41;;;;;;;5.78;1.20;;;17.60;1.00;;;;;;7362662;19;20018;-59
2022/05/28 13:58:19;;;;;;;3.25;1.08;;;17.30;1.00;;;;;;7362001;19;20003;-59